Etusivu
METAR-TAF:

METAR-TAF

Lentoasemat :

Kosrae, Mikronesia

Leveyspiiri: 05-21N, Pituuspiiri: 162-57E, korkeus merenpinnasta: 3 m

Tämänhetkinen sää

Tämä raportti tehtiin 13 minuuttia sitten, kello 12.50 UTC
Tuuli 10 kn luoteesta
Lämpötila 27°C
Kosteus 84%
Ilmanpaine 1012 hPa
Näkyvyys: 16.1 km
Hajanaisia pilviä 2000 ft:n korkeudessa
Hajonneita pilviä 13000 ft:n korkeudessa
Pilvistä 30000 ft:n korkeudessa

METAR: PTSA 221250Z COR 32010KT 10SM SCT020 BKN130 OVC300 27/24 A2987 RMK FIRST

Aika: 00:03 (13:03 UTC)

Sääennuste

Tämä raportti tehtiin 7 tuntia ja 42 minuuttia sitten, kello 05.21 UTC
Ennuste voimassa 22. päivästä klo 06 UTC - 23. päivään klo 06 UTC
Tuuli 8 kn lännestä/luoteesta
Näkyvyys: 10 km
Muutamia pilviä 2000 ft:n korkeudessa
Muutamia pilviä 5000 ft:n korkeudessa
Hajonneita pilviä 13000 ft:n korkeudessa
sadekuuroja näköpiirissä

TAF: PTSA 220521Z 2206/2306 30008KT P6SM VCSH FEW020 FEW050 BKN130

Säähavainnot ja -ennusteet yli 4000 lentoasemalta (METAR- ja TAF-raportit).

Käytössä olevat sääasemat on merkitty karttaan keltaisilla ja punaisilla pisteillä.

Aseta hiiri pisteen päälle nähdäksesi sääaseman nimen.

Klikkaa sitten nähdäksesi säähavainnot ja -ennusteet.

Kartan vaihtaminen: klikkaa mustalla rastilla varustettuja vihreitä pisteitä, niin voit zoomata sisään; viivalla varustettua vihreää pistettä, niin voit zoomata ulos tai vihreitä nuolia, niin pääset viereisille kartoille.


METAR-TAF: